Accueil
METAR-TAF:

METAR-TAF

Aéroports :

Aéroport de Friedrichshafen

Friedrichshafen, Allemagne

latitude: 47-40N, longitude: 009-31E, altitude: 416 m

Observation

Le bulletin a été fait il y a 40 minutes, à 15:50 UTC
Vent 4 kt de ouest/sud-ouest, variant entre sud/sud-ouest et nord/nord-ouest
Température 20°C
Humidité 40%
Pression 1016 hPa
Visibilité 10 km ou plus
Quelques nuages à une hauteur de 4500 ft

METAR: EDNY 131550Z 25004KT 200V330 9999 FEW045 20/06 Q1016

Heure: 18:30 (16:30 UTC)

Prévision

Le bulletin a été fait il y a 2 heures et 30 minutes, à 14:00 UTC
Prévision valable du 13 à 15 UTC au 13 à 24 UTC
Vent 5 kt de sud-ouest
Visibilité 10 km ou plus
Quelques nuages à une hauteur de 4500 ft
Evoluant progressivement
du 13 à 17 UTC au 13 à 19 UTC
Vent 2 kt de direction variable

TAF: EDNY 131400Z 1315/1324 22005KT 9999 FEW045 BECMG 1317/1319 VRB02KT

Observations et prévisions météorologiques de plus de 4000 aéroports (messages METAR et TAF).

Les stations disponibles sont représentées par des disques jaunes et rouges sur la carte.

Passer la souris dessus pour voir le nom de la station.

Cliquer dessus pour voir les observations et prévisions météorologiques.

Pour changer de carte: cliquez sur les boutons verts avec une croix noire pour zoomer, sur le bouton vert avec un tiret pour effectuer un zoom arrière, ou sur les flèches vertes pour les cartes adjacentes.


METAR-TAF: